Bristol, Tennessee
Current Conditions -  °F | °C
As of 8:35 PM on Tuesday 25 Nov 2014 (Local Time) from KVJI Reporting Station
Clear Clear  
Wind Chill:   Ceiling: Unl
Heat Index:   Visibility: 10mi
Dew Point: -1°   Wind: 0mph
Humidity: 65%   Direction: NA
Pressure: 30.09"   Gusts: NA
Location:  36.59°N, 82.22°W
Report Text: KVJI 260135Z AUTO 00000KT 10SM CLR 06/00 A3009 RMK AO2 T00571005
Loading
Personal Weather Stations






























Interactive Weather Map New forecast layout! Learn more

10-Day Weather Forecast

Advertisements
Track Severe Weather on mobile